createdAt,value
2023-01-28T00:00:10.116Z,4.80
2023-01-28T00:02:37.690Z,4.65
2023-01-28T00:05:05.348Z,4.90
2023-01-28T00:07:32.643Z,4.75
2023-01-28T00:10:00.138Z,4.60
2023-01-28T00:12:27.524Z,4.75
2023-01-28T00:14:56.184Z,5.13
2023-01-28T00:17:23.519Z,5.60
2023-01-28T00:19:50.829Z,5.72
2023-01-28T00:22:18.208Z,5.32
2023-01-28T00:24:47.223Z,5.63
2023-01-28T00:27:14.559Z,6.25
2023-01-28T00:29:42.155Z,6.65
2023-01-28T00:32:11.187Z,7.05
2023-01-28T00:34:38.497Z,7.15
2023-01-28T00:37:06.319Z,7.55
2023-01-28T00:39:33.648Z,7.22
2023-01-28T00:42:01.093Z,7.47
2023-01-28T00:44:28.927Z,7.32
2023-01-28T00:46:56.594Z,7.43
2023-01-28T00:49:25.400Z,6.72
2023-01-28T00:51:52.800Z,6.90
2023-01-28T00:54:20.183Z,7.65
2023-01-28T00:56:47.509Z,7.13
2023-01-28T00:59:15.300Z,6.75
2023-01-28T01:01:42.827Z,7.28
2023-01-28T01:04:10.483Z,7.05
2023-01-28T01:06:40.687Z,6.63
2023-01-28T01:09:08.885Z,6.50
2023-01-28T01:11:36.323Z,6.97
2023-01-28T01:14:05.077Z,6.20
2023-01-28T01:16:33.304Z,6.78
2023-01-28T01:19:01.174Z,6.50
2023-01-28T01:21:30.094Z,6.45
2023-01-28T01:23:59.047Z,6.55
2023-01-28T01:26:27.256Z,6.28
2023-01-28T01:28:54.755Z,6.05
2023-01-28T01:31:23.014Z,6.95
2023-01-28T01:33:50.970Z,6.75
2023-01-28T01:36:20.195Z,6.78
2023-01-28T01:38:47.457Z,5.95
2023-01-28T01:41:22.996Z,6.53
2023-01-28T01:43:51.269Z,6.90
2023-01-28T01:46:20.651Z,6.70
2023-01-28T01:48:50.542Z,7.32
2023-01-28T01:51:20.046Z,6.68
2023-01-28T01:53:50.545Z,7.15
2023-01-28T01:56:21.957Z,6.72
2023-01-28T01:58:51.246Z,7.30
2023-01-28T02:01:21.093Z,8.70
2023-01-28T02:03:51.991Z,8.15
2023-01-28T02:06:19.670Z,8.57
2023-01-28T02:08:47.344Z,8.88
2023-01-28T02:11:18.256Z,8.55
2023-01-28T02:13:48.222Z,8.50
2023-01-28T02:16:15.873Z,8.27
2023-01-28T02:18:43.486Z,9.60
2023-01-28T02:21:29.309Z,9.82
2023-01-28T02:24:08.673Z,9.02
2023-01-28T02:26:51.421Z,9.75
2023-01-28T02:29:24.850Z,10.52
2023-01-28T02:31:54.931Z,10.60
2023-01-28T02:34:26.954Z,10.02
2023-01-28T02:36:56.133Z,10.88
2023-01-28T02:39:25.527Z,11.35
2023-01-28T02:41:57.190Z,10.38
2023-01-28T02:44:26.126Z,10.85
2023-01-28T02:47:11.313Z,11.10
2023-01-28T02:49:41.001Z,10.63
2023-01-28T02:52:43.986Z,9.73
2023-01-28T02:55:14.845Z,11.05
2023-01-28T02:57:47.967Z,10.75
2023-01-28T03:00:19.295Z,10.77
2023-01-28T03:02:54.245Z,10.45
2023-01-28T03:05:23.656Z,11.02
2023-01-28T03:07:51.425Z,10.45
2023-01-28T03:10:19.913Z,10.45
2023-01-28T03:13:08.111Z,10.18
2023-01-28T03:15:55.878Z,10.43
2023-01-28T03:18:42.576Z,9.50
2023-01-28T03:21:29.224Z,9.70
2023-01-28T03:24:17.193Z,9.55
2023-01-28T03:27:05.001Z,9.25
2023-01-28T03:29:50.433Z,9.90
2023-01-28T03:32:37.359Z,10.07
2023-01-28T03:35:24.064Z,9.48
2023-01-28T03:37:51.661Z,8.38
2023-01-28T03:40:19.308Z,8.50
2023-01-28T03:42:46.605Z,9.55
2023-01-28T03:45:15.114Z,8.85
2023-01-28T03:47:44.954Z,8.90
2023-01-28T03:50:12.447Z,8.88
2023-01-28T03:52:39.990Z,9.07
2023-01-28T03:55:14.013Z,8.57
2023-01-28T03:57:41.696Z,8.07
2023-01-28T04:00:11.636Z,8.40
2023-01-28T04:02:40.424Z,7.50
2023-01-28T04:05:12.837Z,8.10
2023-01-28T04:07:40.539Z,7.50
2023-01-28T04:10:09.938Z,8.25
2023-01-28T04:12:38.430Z,7.53
2023-01-28T04:15:15.546Z,7.35
2023-01-28T04:17:45.582Z,7.90
2023-01-28T04:20:14.980Z,7.90
2023-01-28T04:22:43.330Z,8.00
2023-01-28T04:25:11.677Z,8.43
2023-01-28T04:27:39.015Z,8.82
2023-01-28T04:30:07.302Z,8.32
2023-01-28T04:32:34.825Z,9.15
2023-01-28T04:35:02.168Z,8.70
2023-01-28T04:37:30.800Z,9.35
2023-01-28T04:40:00.548Z,8.85
2023-01-28T04:42:27.923Z,10.38
2023-01-28T04:44:55.260Z,9.80
2023-01-28T04:47:22.599Z,9.80
2023-01-28T04:49:49.897Z,9.80
2023-01-28T04:52:17.271Z,10.27
2023-01-28T04:54:46.369Z,10.35
2023-01-28T04:57:16.513Z,10.60
2023-01-28T04:59:43.913Z,10.98
2023-01-28T05:02:11.235Z,10.63
2023-01-28T05:04:38.512Z,10.63
2023-01-28T05:07:06.297Z,11.38
2023-01-28T05:09:33.593Z,11.32
2023-01-28T05:12:02.936Z,12.38
2023-01-28T05:14:30.236Z,10.88
2023-01-28T05:16:57.843Z,10.63
2023-01-28T05:19:25.262Z,11.35
2023-01-28T05:21:53.260Z,11.48
2023-01-28T05:24:21.438Z,11.25
2023-01-28T05:26:48.883Z,13.25
2023-01-28T05:29:17.781Z,12.80
2023-01-28T05:31:45.304Z,14.98
2023-01-28T05:34:12.853Z,14.88
2023-01-28T05:36:41.094Z,16.90
2023-01-28T05:39:08.576Z,18.17
2023-01-28T05:41:36.563Z,18.42
2023-01-28T05:44:04.431Z,18.80
2023-01-28T05:46:36.511Z,20.15
2023-01-28T05:49:04.120Z,20.17
2023-01-28T05:51:31.480Z,21.52
2023-01-28T05:53:59.037Z,20.30
2023-01-28T05:56:26.345Z,19.95
2023-01-28T05:58:53.741Z,19.08
2023-01-28T06:01:21.289Z,19.77
2023-01-28T06:03:49.928Z,19.80
2023-01-28T06:06:17.336Z,19.63
2023-01-28T06:08:44.768Z,19.00
2023-01-28T06:11:12.117Z,19.10
2023-01-28T06:13:41.517Z,18.27
2023-01-28T06:16:09.345Z,17.50
2023-01-28T06:18:36.916Z,18.55
2023-01-28T06:21:05.861Z,19.00
2023-01-28T06:23:33.161Z,17.70
2023-01-28T06:26:00.800Z,19.15
2023-01-28T06:28:28.443Z,18.33
2023-01-28T06:30:56.062Z,17.35
2023-01-28T06:33:24.124Z,17.35
2023-01-28T06:35:51.402Z,18.30
2023-01-28T06:38:20.371Z,18.63
2023-01-28T06:40:51.777Z,17.65
2023-01-28T06:43:19.110Z,17.83
2023-01-28T06:45:48.864Z,17.23
2023-01-28T06:48:16.223Z,16.55
2023-01-28T06:50:43.551Z,18.77
2023-01-28T06:53:10.929Z,15.35
2023-01-28T06:55:39.633Z,15.45
2023-01-28T06:58:07.049Z,15.77
2023-01-28T07:00:34.534Z,15.52
2023-01-28T07:03:02.165Z,15.20
2023-01-28T07:05:29.516Z,15.60
2023-01-28T07:07:56.918Z,15.45
2023-01-28T07:10:24.273Z,15.63
2023-01-28T07:12:52.977Z,15.75
2023-01-28T07:15:20.435Z,15.40
2023-01-28T07:17:47.767Z,15.38
2023-01-28T07:20:18.675Z,15.18
2023-01-28T07:22:46.568Z,14.00
2023-01-28T07:25:16.727Z,14.93
2023-01-28T07:27:47.937Z,14.40
2023-01-28T07:30:17.389Z,14.20
2023-01-28T07:32:45.159Z,14.02
2023-01-28T07:35:12.515Z,12.80
2023-01-28T07:37:40.764Z,13.25
2023-01-28T07:40:09.011Z,14.02
2023-01-28T07:42:36.359Z,14.73
2023-01-28T07:45:04.978Z,14.50
2023-01-28T07:47:33.600Z,14.05
2023-01-28T07:50:00.989Z,13.70
2023-01-28T07:52:28.337Z,15.93
2023-01-28T07:54:55.703Z,15.27
2023-01-28T07:57:24.149Z,14.20
2023-01-28T07:59:51.681Z,15.30
2023-01-28T08:02:19.054Z,15.82
2023-01-28T08:04:48.404Z,15.00
2023-01-28T08:07:16.151Z,16.20
2023-01-28T08:09:43.535Z,15.18
2023-01-28T08:12:11.097Z,15.60
2023-01-28T08:14:38.460Z,15.77
2023-01-28T08:17:05.720Z,16.52
2023-01-28T08:19:33.563Z,16.38
2023-01-28T08:22:02.232Z,16.33
2023-01-28T08:24:29.675Z,16.42
2023-01-28T08:26:57.095Z,15.95
2023-01-28T08:29:28.340Z,16.52
2023-01-28T08:31:55.625Z,16.65
2023-01-28T08:34:22.990Z,15.95
2023-01-28T08:36:50.288Z,15.15
2023-01-28T08:39:19.036Z,17.45
2023-01-28T08:41:46.390Z,16.27
2023-01-28T08:44:13.927Z,16.10
2023-01-28T08:46:41.840Z,16.73
2023-01-28T08:49:09.461Z,16.35
2023-01-28T08:51:36.789Z,15.80
2023-01-28T08:54:04.275Z,16.65
2023-01-28T08:56:33.717Z,15.70
2023-01-28T08:59:01.302Z,15.52
2023-01-28T09:01:29.308Z,13.85
2023-01-28T09:03:56.879Z,14.75
2023-01-28T09:06:25.862Z,14.82
2023-01-28T09:08:55.709Z,16.20
2023-01-28T09:11:23.682Z,15.82
2023-01-28T09:13:52.486Z,15.90
2023-01-28T09:16:19.888Z,16.15
2023-01-28T09:18:48.212Z,15.45
2023-01-28T09:21:15.521Z,15.90
2023-01-28T09:23:42.836Z,15.10
2023-01-28T09:26:12.679Z,15.43
2023-01-28T09:28:40.312Z,14.82
2023-01-28T09:31:09.783Z,15.07
2023-01-28T09:33:37.880Z,15.70
2023-01-28T09:36:06.492Z,15.65
2023-01-28T09:38:35.335Z,14.75
2023-01-28T09:41:04.130Z,15.07
2023-01-28T09:43:40.893Z,14.98
2023-01-28T09:46:12.875Z,15.93
2023-01-28T09:48:42.678Z,16.85
2023-01-28T09:51:12.809Z,15.35
2023-01-28T09:53:41.974Z,14.73
2023-01-28T09:56:14.407Z,14.75
2023-01-28T09:58:42.750Z,15.55
2023-01-28T10:01:21.416Z,16.00
2023-01-28T10:03:53.661Z,15.85
2023-01-28T10:06:24.641Z,15.30
2023-01-28T10:09:04.314Z,14.90
2023-01-28T10:11:38.250Z,15.15
2023-01-28T10:14:07.505Z,14.07
2023-01-28T10:16:38.547Z,16.35
2023-01-28T10:19:07.950Z,15.70
2023-01-28T10:21:37.763Z,15.00
2023-01-28T10:24:07.928Z,15.82
2023-01-28T10:26:36.748Z,16.38
2023-01-28T10:29:05.811Z,14.75
2023-01-28T10:31:36.775Z,15.52
2023-01-28T10:34:05.722Z,13.57
2023-01-28T10:36:33.166Z,14.27
2023-01-28T10:39:00.911Z,13.40
2023-01-28T10:41:28.251Z,13.77
2023-01-28T10:43:57.872Z,14.23
2023-01-28T10:46:28.817Z,13.88
2023-01-28T10:48:59.244Z,14.27
2023-01-28T10:51:35.525Z,14.13
2023-01-28T10:54:02.827Z,12.98
2023-01-28T10:56:36.476Z,13.90
2023-01-28T10:59:04.773Z,15.00
2023-01-28T11:01:45.261Z,14.63
2023-01-28T11:04:16.696Z,14.13
2023-01-28T11:06:55.193Z,14.23
2023-01-28T11:09:23.012Z,14.52
2023-01-28T11:11:50.663Z,14.65
2023-01-28T11:14:21.723Z,15.20
2023-01-28T11:16:50.244Z,14.90
2023-01-28T11:19:19.487Z,15.98
2023-01-28T11:21:52.698Z,15.93
2023-01-28T11:24:21.930Z,15.77
2023-01-28T11:26:50.510Z,15.25
2023-01-28T11:29:26.631Z,15.25
2023-01-28T11:31:54.360Z,15.10
2023-01-28T11:34:22.225Z,15.02
2023-01-28T11:36:55.037Z,15.65
2023-01-28T11:39:25.730Z,15.00
2023-01-28T11:41:53.060Z,14.68
2023-01-28T11:44:22.059Z,14.30
2023-01-28T11:46:56.196Z,15.95
2023-01-28T11:49:29.358Z,16.08
2023-01-28T11:52:03.439Z,15.40
2023-01-28T11:54:37.829Z,15.98
2023-01-28T11:57:18.154Z,15.45
2023-01-28T11:59:55.247Z,14.88
2023-01-28T12:02:31.972Z,14.02
2023-01-28T12:05:08.278Z,14.82
2023-01-28T12:07:41.787Z,14.43
2023-01-28T12:10:14.597Z,14.75
2023-01-28T12:12:53.874Z,14.38
2023-01-28T12:15:39.267Z,13.93
2023-01-28T12:18:12.258Z,13.65
2023-01-28T12:20:43.449Z,13.10
2023-01-28T12:23:25.661Z,14.00
2023-01-28T12:26:00.172Z,13.52
2023-01-28T12:28:34.197Z,13.98
2023-01-28T12:31:13.528Z,13.88
2023-01-28T12:33:58.986Z,14.15
2023-01-28T12:36:31.585Z,14.65
2023-01-28T12:39:04.943Z,14.18
2023-01-28T12:41:38.226Z,13.60
2023-01-28T12:44:08.820Z,14.25
2023-01-28T12:46:43.762Z,13.77
2023-01-28T12:49:17.016Z,14.60
2023-01-28T12:51:49.197Z,14.05
2023-01-28T12:54:21.600Z,13.52
2023-01-28T12:56:55.214Z,12.65
2023-01-28T12:59:29.629Z,14.90
2023-01-28T13:02:01.915Z,14.20
2023-01-28T13:04:33.159Z,14.88
2023-01-28T13:07:06.863Z,13.13
2023-01-28T13:09:38.087Z,13.68
2023-01-28T13:12:07.671Z,13.23
2023-01-28T13:14:37.538Z,13.10
2023-01-28T13:17:12.956Z,13.77
2023-01-28T13:19:42.386Z,14.60
2023-01-28T13:22:27.460Z,14.80
2023-01-28T13:24:54.959Z,17.00
2023-01-28T13:27:25.658Z,15.50
2023-01-28T13:30:02.445Z,16.67
2023-01-28T13:32:33.656Z,15.60
2023-01-28T13:35:02.784Z,14.70
2023-01-28T13:37:33.088Z,16.17
2023-01-28T13:40:03.167Z,14.85
2023-01-28T13:42:41.201Z,15.02
2023-01-28T13:45:22.001Z,14.05
2023-01-28T13:47:52.862Z,14.45
2023-01-28T13:50:23.979Z,14.38
2023-01-28T13:52:54.357Z,14.20
2023-01-28T13:55:37.535Z,13.85
2023-01-28T13:58:23.947Z,14.10
2023-01-28T14:01:06.404Z,13.68
2023-01-28T14:03:43.808Z,14.57
2023-01-28T14:06:20.917Z,13.80
2023-01-28T14:09:06.382Z,14.65
2023-01-28T14:11:47.391Z,13.48
2023-01-28T14:14:32.324Z,13.10
2023-01-28T14:22:42.211Z,13.80
2023-01-28T14:25:13.772Z,14.27
2023-01-28T14:27:43.823Z,14.75
2023-01-28T14:30:16.907Z,14.43
2023-01-28T14:32:47.838Z,15.18
2023-01-28T14:35:19.450Z,15.13
2023-01-28T14:37:48.162Z,14.98
2023-01-28T14:40:17.183Z,14.30
2023-01-28T14:42:46.067Z,13.32
2023-01-28T14:45:23.556Z,14.95
2023-01-28T14:47:59.194Z,14.60
2023-01-28T14:50:35.817Z,14.25
2023-01-28T14:53:24.180Z,13.98
2023-01-28T14:55:55.908Z,14.65
2023-01-28T14:58:26.369Z,13.57
2023-01-28T15:00:54.416Z,13.88
2023-01-28T15:03:26.090Z,14.63
2023-01-28T15:06:02.768Z,14.13
2023-01-28T15:08:32.052Z,14.30
2023-01-28T15:11:01.973Z,14.48
2023-01-28T15:13:30.280Z,14.20
2023-01-28T15:15:58.219Z,15.18
2023-01-28T15:18:30.130Z,14.95
2023-01-28T15:20:58.484Z,14.77
2023-01-28T15:23:27.583Z,15.18
2023-01-28T15:25:55.237Z,15.82
2023-01-28T15:28:27.500Z,15.00
2023-01-28T15:30:54.943Z,15.80
2023-01-28T15:33:24.023Z,15.60
2023-01-28T15:35:52.506Z,16.42
2023-01-28T15:38:19.872Z,15.85
2023-01-28T15:40:48.849Z,14.93
2023-01-28T15:43:19.939Z,16.27
2023-01-28T15:45:48.978Z,15.68
2023-01-28T15:48:16.457Z,16.30
2023-01-28T15:50:44.840Z,15.90
2023-01-28T15:53:14.084Z,16.63
2023-01-28T15:55:42.559Z,17.35
2023-01-28T15:58:20.119Z,17.85
2023-01-28T16:00:50.787Z,17.48
2023-01-28T16:03:20.160Z,18.15
2023-01-28T16:05:55.972Z,19.20
2023-01-28T16:08:26.120Z,18.50
2023-01-28T16:10:54.392Z,28.25
2023-01-28T16:13:22.862Z,27.83
2023-01-28T16:15:53.676Z,22.52
2023-01-28T16:18:25.151Z,22.70
2023-01-28T16:20:53.664Z,23.70
2023-01-28T16:23:22.606Z,24.95
2023-01-28T16:25:59.183Z,30.00
2023-01-28T16:28:26.469Z,22.50
2023-01-28T16:30:55.411Z,29.80
2023-01-28T16:33:23.092Z,38.25
2023-01-28T16:36:07.417Z,49.75
2023-01-28T16:38:35.443Z,80.22
2023-01-28T16:41:02.838Z,31.13
2023-01-28T16:43:30.384Z,30.50
2023-01-28T16:45:59.028Z,36.67
2023-01-28T16:48:26.355Z,30.77
2023-01-28T16:50:54.155Z,49.22
2023-01-28T16:53:22.944Z,32.22
2023-01-28T16:55:50.827Z,30.33
2023-01-28T16:58:23.334Z,28.15
2023-01-28T17:00:55.133Z,32.20
2023-01-28T17:03:24.847Z,29.83
2023-01-28T17:05:52.640Z,29.30
2023-01-28T17:08:20.280Z,29.77
2023-01-28T17:10:52.303Z,41.17
2023-01-28T17:13:19.732Z,28.77
2023-01-28T17:15:47.531Z,26.42
2023-01-28T17:18:15.291Z,38.50
2023-01-28T17:20:44.138Z,33.97
2023-01-28T17:23:14.660Z,55.22
2023-01-28T17:25:42.736Z,28.05
2023-01-28T17:28:10.661Z,29.85
2023-01-28T17:30:41.209Z,31.73
2023-01-28T17:33:10.068Z,38.92
2023-01-28T17:35:37.780Z,29.33
2023-01-28T17:38:06.828Z,28.75
2023-01-28T17:40:34.160Z,33.80
2023-01-28T17:43:01.650Z,32.58
2023-01-28T17:45:31.205Z,33.35
2023-01-28T17:47:58.613Z,31.58
2023-01-28T17:50:26.188Z,31.60
2023-01-28T17:52:54.743Z,41.58
2023-01-28T17:55:23.800Z,36.13
2023-01-28T17:57:51.076Z,32.38
2023-01-28T18:00:19.631Z,33.13
2023-01-28T18:02:50.101Z,35.15
2023-01-28T18:05:18.029Z,35.45
2023-01-28T18:07:46.029Z,34.58
2023-01-28T18:10:13.735Z,34.42
2023-01-28T18:12:42.462Z,72.63
2023-01-28T18:15:11.470Z,41.00
2023-01-28T18:17:41.938Z,49.65
2023-01-28T18:20:11.256Z,48.08
2023-01-28T18:22:39.705Z,39.40
2023-01-28T18:25:10.149Z,75.25
2023-01-28T18:27:37.488Z,34.63
2023-01-28T18:30:06.783Z,37.13
2023-01-28T18:32:35.105Z,34.53
2023-01-28T18:35:02.871Z,37.90
2023-01-28T18:37:30.812Z,37.42
2023-01-28T18:39:58.356Z,36.53
2023-01-28T18:42:25.724Z,37.45
2023-01-28T18:44:53.456Z,38.90
2023-01-28T18:47:22.519Z,39.42
2023-01-28T18:49:49.884Z,40.72
2023-01-28T18:52:17.361Z,41.03
2023-01-28T18:54:45.534Z,45.75
2023-01-28T18:57:13.129Z,57.10
2023-01-28T18:59:40.394Z,60.20
2023-01-28T19:02:07.809Z,45.05
2023-01-28T19:04:39.041Z,43.20
2023-01-28T19:07:08.245Z,45.53
2023-01-28T19:09:36.483Z,43.40
2023-01-28T19:12:03.938Z,43.78
2023-01-28T19:14:33.711Z,43.05
2023-01-28T19:17:01.035Z,43.70
2023-01-28T19:19:28.443Z,44.58
2023-01-28T19:21:57.042Z,43.60
2023-01-28T19:24:25.156Z,46.15
2023-01-28T19:26:52.696Z,52.38
2023-01-28T19:29:20.050Z,55.08
2023-01-28T19:31:49.425Z,47.28
2023-01-28T19:34:16.911Z,49.38
2023-01-28T19:36:44.605Z,72.15
2023-01-28T19:39:13.763Z,91.95
2023-01-28T19:41:41.208Z,90.72
2023-01-28T19:44:08.528Z,100.97
2023-01-28T19:46:38.004Z,50.28
2023-01-28T19:49:06.313Z,63.28
2023-01-28T19:51:33.725Z,98.80
2023-01-28T19:54:01.447Z,83.55
2023-01-28T19:56:30.466Z,86.65
2023-01-28T19:58:58.102Z,62.40
2023-01-28T20:01:29.685Z,71.25
2023-01-28T20:03:59.182Z,79.82
2023-01-28T20:06:27.610Z,172.15
2023-01-28T20:08:55.929Z,54.38
2023-01-28T20:11:23.379Z,44.63
2023-01-28T20:13:52.531Z,54.50
2023-01-28T20:16:21.236Z,58.40
2023-01-28T20:18:51.979Z,66.32
2023-01-28T20:21:22.013Z,79.20
2023-01-28T20:23:50.176Z,52.75
2023-01-28T20:26:17.908Z,71.00
2023-01-28T20:28:45.349Z,55.95
2023-01-28T20:31:14.731Z,62.00
2023-01-28T20:33:42.118Z,57.15
2023-01-28T20:36:10.196Z,58.00
2023-01-28T20:38:38.045Z,56.53
2023-01-28T20:41:06.973Z,64.20
2023-01-28T20:43:34.847Z,72.57
2023-01-28T20:46:02.994Z,79.22
2023-01-28T20:48:31.641Z,51.88
2023-01-28T20:51:04.955Z,48.20
2023-01-28T20:53:32.366Z,67.20
2023-01-28T20:56:00.166Z,49.08
2023-01-28T20:58:28.020Z,50.17
2023-01-28T21:00:55.314Z,56.30
2023-01-28T21:03:22.727Z,47.42
2023-01-28T21:05:51.599Z,45.47
2023-01-28T21:08:19.205Z,47.22
2023-01-28T21:10:46.637Z,44.92
2023-01-28T21:13:14.675Z,44.78
2023-01-28T21:15:42.360Z,45.50
2023-01-28T21:18:09.680Z,44.97
2023-01-28T21:20:38.023Z,45.15
2023-01-28T21:23:14.449Z,44.47
2023-01-28T21:25:41.900Z,46.17
2023-01-28T21:28:10.401Z,45.95
2023-01-28T21:30:37.753Z,46.80
2023-01-28T21:33:05.302Z,44.20
2023-01-28T21:35:33.315Z,50.67
2023-01-28T21:38:00.644Z,53.38
2023-01-28T21:40:29.241Z,48.42
2023-01-28T21:42:56.558Z,48.50
2023-01-28T21:45:24.078Z,48.85
2023-01-28T21:47:51.390Z,44.53
2023-01-28T21:50:18.824Z,48.20
2023-01-28T21:52:48.583Z,45.42
2023-01-28T21:55:16.691Z,47.78
2023-01-28T21:57:46.043Z,50.13
2023-01-28T22:00:13.005Z,47.05
2023-01-28T22:02:40.493Z,46.92
2023-01-28T22:05:08.335Z,52.45
2023-01-28T22:07:35.648Z,47.35
2023-01-28T22:10:03.176Z,46.13
2023-01-28T22:12:30.489Z,45.53
2023-01-28T22:14:59.956Z,45.90
2023-01-28T22:17:27.261Z,45.40
2023-01-28T22:19:54.802Z,47.92
2023-01-28T22:22:22.132Z,47.20
2023-01-28T22:24:49.411Z,44.03
2023-01-28T22:27:16.759Z,45.47
2023-01-28T22:29:44.053Z,44.33
2023-01-28T22:32:12.698Z,47.63
2023-01-28T22:34:40.745Z,51.75
2023-01-28T22:37:08.052Z,54.38
2023-01-28T22:39:35.360Z,54.35
2023-01-28T22:42:02.649Z,59.40
2023-01-28T22:44:30.007Z,51.35
2023-01-28T22:46:57.316Z,46.25
2023-01-28T22:49:26.627Z,47.65
2023-01-28T22:51:53.881Z,46.05
2023-01-28T22:54:21.433Z,68.10
2023-01-28T22:56:48.827Z,59.90
2023-01-28T22:59:16.151Z,58.20
2023-01-28T23:01:43.706Z,65.60
2023-01-28T23:04:12.635Z,89.43
2023-01-28T23:06:41.608Z,78.93
2023-01-28T23:09:09.219Z,83.65
2023-01-28T23:11:36.803Z,87.15
2023-01-28T23:14:22.627Z,59.15
2023-01-28T23:17:07.673Z,72.40
2023-01-28T23:19:52.969Z,54.75
2023-01-28T23:22:40.906Z,83.88
2023-01-28T23:25:08.612Z,60.10
2023-01-28T23:27:36.534Z,47.47
2023-01-28T23:30:05.637Z,68.28
2023-01-28T23:32:32.941Z,60.35
2023-01-28T23:35:00.258Z,54.65
2023-01-28T23:37:29.360Z,42.63
2023-01-28T23:39:56.917Z,70.18
2023-01-28T23:42:25.851Z,42.78
2023-01-28T23:44:53.240Z,42.30
2023-01-28T23:47:20.807Z,38.40
2023-01-28T23:49:49.681Z,49.40
2023-01-28T23:52:17.450Z,42.63
2023-01-28T23:54:46.096Z,59.88
2023-01-28T23:57:13.584Z,62.92
2023-01-28T23:59:40.908Z,37.67
